Terminal Aerodrome Forecast
Issued by NWS Atlanta, GA

Home | Current Version | Previous Version | Text Only | Print | Product List | Glossary On
Versions: 1 2 3 4 5 6 7 8 9 10 11 12 13 14 15 16 17 18 19 20 21 22
000
FTUS42 KFFC 231900 AAA
TAFMCN
TAF AMD
KMCN 231940Z 2320/2418 07004KT P6SM SCT035 BKN045
      TEMPO 2320/2323 5SM TSRA BR BKN035CB
     FM232300 29005KT P6SM SCT040
     FM240300 35003KT P6SM FEW045
     FM240700 27003KT P6SM FEW025
     FM241600 25008G15KT P6SM VCSH BKN045=

USA.gov is the U.S. government's official web portal to all federal, state and local government web resources and services.